Terminal Aerodrome Forecast
Issued by NWS Austin/San Antonio, TX

Home | Current Version | Previous Version | Text Only | Print | Product List | Glossary On
Versions: 1 2 3 4 5 6 7 8 9 10 11 12 13
000
FTUS44 KEWX 282300
TAFAUS
TAF
KAUS 282338Z 2900/3006 19012KT P6SM SCT250
     FM290100 18005KT P6SM FEW100 SCT250
     FM290900 21005KT 1SM BR SCT003 SCT100
      TEMPO 2911/2915 BKN003
     FM291600 24005KT P6SM SCT100
     FM292100 02015KT P6SM SCT100 BKN200=

USA.gov is the U.S. government's official web portal to all federal, state and local government web resources and services.